Time;durP1;ratioP1;P1;durP2;ratioP2;P2;SDS_P1;SDS_P2;PMS_P1;PMS_P2;Temp;Humidity;BMP_temperature;BMP_pressure;BME280_temperature;BME280_humidity;BME280_pressure;Samples;Min_cycle;Max_cycle;Signal;HPM_P1;HPM_P2
2021/05/19 00:01:16;;;;;;;4.80;3.07;;;7.30;99.90;;;;;;5132898;27;20461;-78
2021/05/19 00:03:51;;;;;;;3.70;3.40;;;7.10;99.90;;;;;;5131483;27;20446;-72
2021/05/19 00:06:26;;;;;;;3.60;3.30;;;7.10;99.90;;;;;;5138079;27;20513;-73
2021/05/19 00:09:01;;;;;;;3.43;3.13;;;7.00;99.90;;;;;;5134333;27;20511;-72
2021/05/19 00:11:37;;;;;;;3.10;2.90;;;7.00;99.90;;;;;;5132872;27;20456;-75
2021/05/19 00:14:14;;;;;;;4.60;3.60;;;6.90;99.90;;;;;;5127992;27;20464;-73
2021/05/19 00:16:50;;;;;;;4.33;3.30;;;7.00;99.90;;;;;;5132498;27;20439;-72
2021/05/19 00:19:25;;;;;;;3.30;3.10;;;7.00;99.90;;;;;;5128429;27;20457;-72
2021/05/19 00:21:59;;;;;;;3.40;2.87;;;7.00;99.90;;;;;;5133088;27;20443;-72
2021/05/19 00:24:34;;;;;;;3.90;3.57;;;7.00;99.90;;;;;;5130041;27;20789;-78
2021/05/19 00:27:10;;;;;;;6.20;3.47;;;7.00;99.90;;;;;;5126920;27;20960;-72
2021/05/19 00:29:45;;;;;;;7.00;3.53;;;6.90;99.90;;;;;;5126249;27;20496;-72
2021/05/19 00:32:20;;;;;;;4.50;3.57;;;6.90;99.90;;;;;;5136473;27;20445;-73
2021/05/19 00:34:55;;;;;;;4.63;3.90;;;6.90;99.90;;;;;;5128357;27;20455;-72
2021/05/19 00:37:30;;;;;;;6.00;3.37;;;6.90;99.90;;;;;;5130135;27;20549;-72
2021/05/19 00:40:05;;;;;;;5.57;3.63;;;6.90;99.90;;;;;;5135068;27;20451;-73
2021/05/19 00:42:41;;;;;;;3.80;3.23;;;6.90;99.90;;;;;;5134723;27;20446;-73
2021/05/19 00:45:17;;;;;;;3.70;3.40;;;6.90;99.90;;;;;;5128205;27;20492;-72
2021/05/19 00:47:52;;;;;;;4.10;3.80;;;6.80;99.90;;;;;;5127936;27;21026;-73
2021/05/19 00:50:29;;;;;;;3.20;2.90;;;6.80;99.90;;;;;;5132477;27;20453;-71
2021/05/19 00:53:05;;;;;;;3.50;3.20;;;6.80;99.90;;;;;;5133162;27;21015;-71
2021/05/19 00:55:40;;;;;;;3.50;3.30;;;6.90;99.90;;;;;;5130608;27;20520;-74
2021/05/19 00:58:16;;;;;;;3.40;3.20;;;7.00;99.90;;;;;;5128298;27;20808;-71
2021/05/19 01:00:51;;;;;;;4.03;3.60;;;7.10;99.90;;;;;;5130338;27;20438;-71
2021/05/19 01:03:26;;;;;;;3.97;3.67;;;7.10;99.90;;;;;;5131120;27;20467;-72
2021/05/19 01:06:05;;;;;;;5.37;3.50;;;7.10;99.90;;;;;;5130444;27;20485;-73
2021/05/19 01:11:30;;;;;;;3.40;3.10;;;7.10;99.90;;;;;;5128227;27;20547;-72
2021/05/19 01:14:06;;;;;;;3.13;2.83;;;7.10;99.90;;;;;;5129028;27;20469;-77
2021/05/19 01:16:38;;;;;;;4.00;3.70;;;7.20;99.90;;;;;;5124614;27;20454;-70
2021/05/19 01:19:16;;;;;;;5.03;4.10;;;7.30;99.90;;;;;;5126703;27;20474;-75
2021/05/19 01:21:53;;;;;;;3.30;3.03;;;7.30;99.90;;;;;;5128827;27;21010;-73
2021/05/19 01:24:28;;;;;;;3.53;3.23;;;7.40;99.90;;;;;;5130051;27;20492;-72
2021/05/19 01:27:03;;;;;;;3.70;3.40;;;7.40;99.90;;;;;;5128871;27;20993;-74
2021/05/19 01:29:38;;;;;;;3.73;3.33;;;7.50;99.90;;;;;;5130025;27;20451;-73
2021/05/19 01:32:13;;;;;;;4.43;3.17;;;7.70;99.90;;;;;;5127522;27;20536;-72
2021/05/19 01:34:48;;;;;;;3.03;2.83;;;7.70;99.90;;;;;;5134811;27;20561;-73
2021/05/19 01:37:23;;;;;;;4.03;3.67;;;7.80;99.90;;;;;;5128510;27;20471;-70
2021/05/19 01:39:59;;;;;;;3.40;3.10;;;7.80;99.90;;;;;;5130528;27;20461;-72
2021/05/19 01:42:34;;;;;;;3.93;3.40;;;7.80;99.90;;;;;;5127465;27;20463;-72
2021/05/19 01:45:09;;;;;;;4.27;2.70;;;7.80;99.90;;;;;;5135324;27;20460;-72
2021/05/19 01:47:47;;;;;;;5.53;3.60;;;7.80;99.90;;;;;;5129024;27;20451;-73
2021/05/19 01:50:24;;;;;;;3.90;3.50;;;7.70;99.90;;;;;;5131112;27;20465;-72
2021/05/19 01:53:02;;;;;;;3.40;3.10;;;7.70;99.90;;;;;;5133686;27;20478;-73
2021/05/19 01:55:38;;;;;;;3.77;3.47;;;7.70;99.90;;;;;;5133485;27;20475;-71
2021/05/19 01:58:13;;;;;;;3.47;3.17;;;7.60;99.90;;;;;;5133093;27;20455;-72
2021/05/19 02:00:48;;;;;;;4.13;3.73;;;7.60;99.90;;;;;;5128556;27;20436;-73
2021/05/19 02:03:24;;;;;;;3.67;3.37;;;7.60;99.90;;;;;;5128337;27;21274;-73
2021/05/19 02:05:59;;;;;;;3.50;3.20;;;7.60;99.90;;;;;;5133819;27;20448;-70
2021/05/19 02:08:33;;;;;;;3.63;3.33;;;7.70;99.90;;;;;;5125167;27;20487;-74
2021/05/19 02:11:09;;;;;;;5.00;3.23;;;7.70;99.90;;;;;;5132381;27;20784;-72
2021/05/19 02:13:44;;;;;;;3.23;2.93;;;7.70;99.90;;;;;;5127848;27;20528;-74
2021/05/19 02:16:19;;;;;;;3.70;3.40;;;7.70;99.90;;;;;;5133297;27;20503;-74
2021/05/19 02:18:53;;;;;;;3.23;3.03;;;7.60;99.90;;;;;;5127706;27;20456;-74
2021/05/19 02:21:25;;;;;;;3.70;3.40;;;7.60;99.90;;;;;;5135546;27;20451;-75
2021/05/19 02:24:01;;;;;;;3.83;3.53;;;7.50;99.90;;;;;;5128922;27;20438;-73
2021/05/19 02:26:37;;;;;;;4.00;3.70;;;7.40;99.90;;;;;;5132981;27;20466;-72
2021/05/19 02:29:13;;;;;;;4.00;3.60;;;7.50;99.90;;;;;;5142694;27;20488;-72
2021/05/19 02:31:48;;;;;;;5.23;4.60;;;7.40;99.90;;;;;;5136688;27;20473;-71
2021/05/19 02:34:23;;;;;;;4.60;4.30;;;7.30;99.90;;;;;;5128554;27;20510;-72
2021/05/19 02:36:59;;;;;;;5.00;4.60;;;7.30;99.90;;;;;;5135613;27;20473;-72
2021/05/19 02:39:35;;;;;;;5.43;4.93;;;7.20;99.90;;;;;;5134243;27;20455;-72
2021/05/19 02:42:11;;;;;;;5.20;4.70;;;7.10;99.90;;;;;;5135916;27;20445;-72
2021/05/19 02:44:46;;;;;;;5.27;4.77;;;7.00;99.90;;;;;;5129715;27;20803;-71
2021/05/19 02:47:21;;;;;;;5.83;5.20;;;6.90;99.90;;;;;;5143453;27;20499;-73
2021/05/19 02:49:56;;;;;;;6.10;5.30;;;6.90;99.90;;;;;;5140891;27;20452;-73
2021/05/19 02:52:31;;;;;;;6.67;5.63;;;6.90;99.90;;;;;;5137055;27;20463;-71
2021/05/19 02:55:06;;;;;;;8.23;5.33;;;6.80;99.90;;;;;;5139064;27;20858;-81
2021/05/19 02:57:42;;;;;;;8.10;5.60;;;6.70;99.90;;;;;;5131297;27;20449;-71
2021/05/19 03:00:17;;;;;;;6.90;6.23;;;6.60;99.90;;;;;;5133495;27;20533;-71
2021/05/19 03:02:52;;;;;;;7.00;6.30;;;6.60;99.90;;;;;;5135266;27;20444;-72
2021/05/19 03:05:29;;;;;;;8.20;5.60;;;6.60;99.90;;;;;;5132154;27;20450;-73
2021/05/19 03:08:04;;;;;;;7.20;6.50;;;6.60;99.90;;;;;;5138674;27;20426;-71
2021/05/19 03:10:39;;;;;;;7.63;6.87;;;6.60;99.90;;;;;;5132796;27;20447;-72
2021/05/19 03:13:15;;;;;;;7.70;6.90;;;6.50;99.90;;;;;;5134008;27;20994;-72
2021/05/19 03:15:50;;;;;;;9.10;7.33;;;6.50;99.90;;;;;;5129656;27;20535;-81
2021/05/19 03:18:24;;;;;;;8.03;6.87;;;6.60;99.90;;;;;;5136702;27;20485;-71
2021/05/19 03:21:01;;;;;;;8.10;7.30;;;6.60;99.90;;;;;;5130465;27;20449;-79
2021/05/19 03:23:33;;;;;;;8.40;7.33;;;6.50;99.90;;;;;;5134640;27;20499;-72
2021/05/19 03:26:08;;;;;;;9.60;7.70;;;6.50;99.90;;;;;;5137169;27;20952;-72
2021/05/19 03:28:45;;;;;;;9.33;8.30;;;6.60;99.90;;;;;;5132777;27;21257;-73
2021/05/19 03:31:21;;;;;;;9.70;8.57;;;6.50;99.90;;;;;;5131139;27;20442;-73
2021/05/19 03:33:56;;;;;;;9.80;8.80;;;6.50;99.90;;;;;;5138154;27;20470;-72
2021/05/19 03:36:30;;;;;;;19.10;10.37;;;6.50;99.90;;;;;;5142015;27;20530;-72
2021/05/19 03:39:05;;;;;;;10.80;8.93;;;6.50;99.90;;;;;;5130062;27;21050;-74
2021/05/19 03:41:40;;;;;;;11.07;9.33;;;6.60;99.90;;;;;;5129632;27;20457;-72
2021/05/19 03:44:16;;;;;;;9.90;8.90;;;6.70;99.90;;;;;;5131845;27;20434;-75
2021/05/19 03:46:53;;;;;;;11.20;10.00;;;6.70;99.90;;;;;;5137560;27;20445;-74
2021/05/19 03:49:28;;;;;;;11.50;10.40;;;6.70;99.90;;;;;;5131863;27;20440;-73
2021/05/19 03:52:03;;;;;;;10.30;9.17;;;6.80;99.90;;;;;;5139075;27;20461;-72
2021/05/19 03:54:36;;;;;;;14.20;9.90;;;6.70;99.90;;;;;;5128262;27;20463;-73
2021/05/19 03:57:12;;;;;;;11.33;10.13;;;6.80;99.90;;;;;;5135715;27;20519;-71
2021/05/19 03:59:48;;;;;;;13.97;10.53;;;6.90;99.90;;;;;;5128249;27;20562;-71
2021/05/19 04:02:23;;;;;;;11.90;10.50;;;7.80;99.90;;;;;;5139091;27;20486;-72
2021/05/19 04:04:55;;;;;;;11.60;10.10;;;8.30;99.90;;;;;;5134355;27;20964;-72
2021/05/19 04:07:30;;;;;;;9.93;8.93;;;8.90;99.90;;;;;;5142550;27;20451;-72
2021/05/19 04:10:06;;;;;;;9.43;8.53;;;9.60;93.80;;;;;;5138087;27;20816;-73
2021/05/19 04:12:40;;;;;;;8.83;8.03;;;10.20;88.50;;;;;;5136412;27;20444;-75
2021/05/19 04:15:17;;;;;;;9.20;7.60;;;10.80;85.10;;;;;;5141646;27;20468;-72
2021/05/19 04:17:51;;;;;;;8.83;7.93;;;10.90;82.70;;;;;;5137471;27;20448;-72
2021/05/19 04:20:27;;;;;;;8.70;7.90;;;10.30;82.70;;;;;;5137255;27;20467;-74
2021/05/19 04:23:02;;;;;;;8.47;7.70;;;9.50;86.60;;;;;;5135412;27;20436;-75
2021/05/19 04:25:37;;;;;;;6.80;6.20;;;9.90;88.80;;;;;;5135055;27;20485;-73
2021/05/19 04:28:11;;;;;;;7.43;6.63;;;10.60;84.00;;;;;;5131556;27;20582;-72
2021/05/19 04:30:47;;;;;;;7.20;6.50;;;10.80;83.20;;;;;;5135782;27;20501;-77
2021/05/19 04:33:22;;;;;;;8.17;7.37;;;10.40;82.00;;;;;;5136366;27;20460;-74
2021/05/19 04:35:57;;;;;;;25.30;9.20;;;10.40;83.30;;;;;;5128809;27;20506;-72
2021/05/19 04:38:32;;;;;;;7.47;6.60;;;10.20;82.60;;;;;;5133309;27;20460;-73
2021/05/19 04:41:06;;;;;;;10.10;8.10;;;9.30;84.20;;;;;;5141420;27;20508;-74
2021/05/19 04:43:42;;;;;;;8.37;7.57;;;8.90;87.90;;;;;;5131446;27;20444;-73
2021/05/19 04:46:18;;;;;;;10.80;7.63;;;10.70;87.00;;;;;;5136023;27;20479;-73
2021/05/19 04:48:58;;;;;;;9.60;8.03;;;12.00;82.00;;;;;;5130012;27;20440;-74
2021/05/19 04:51:34;;;;;;;15.27;8.17;;;12.30;78.50;;;;;;5131679;27;20942;-76
2021/05/19 04:54:09;;;;;;;7.60;7.00;;;12.80;78.10;;;;;;5130632;27;20448;-76
2021/05/19 04:56:45;;;;;;;8.43;7.57;;;12.90;76.30;;;;;;5135678;27;20940;-72
2021/05/19 04:59:19;;;;;;;8.87;7.70;;;13.00;74.90;;;;;;5132603;27;20904;-73
2021/05/19 05:01:52;;;;;;;8.03;7.30;;;12.20;74.40;;;;;;5130708;27;20968;-73
2021/05/19 05:04:27;;;;;;;7.90;7.30;;;11.90;76.90;;;;;;5132839;27;20473;-73
2021/05/19 05:07:02;;;;;;;8.20;7.50;;;13.60;76.30;;;;;;5130512;27;20537;-75
2021/05/19 05:09:37;;;;;;;7.90;7.10;;;15.10;73.30;;;;;;5134387;27;20508;-74
2021/05/19 05:12:12;;;;;;;8.33;7.63;;;15.90;69.50;;;;;;5129906;27;20448;-78
2021/05/19 05:14:47;;;;;;;8.10;7.40;;;15.90;67.70;;;;;;5133690;27;20815;-72
2021/05/19 05:17:23;;;;;;;10.90;7.47;;;14.90;67.60;;;;;;5127706;27;21300;-73
2021/05/19 05:19:58;;;;;;;8.33;7.27;;;14.50;68.30;;;;;;5133174;27;20443;-76
2021/05/19 05:22:33;;;;;;;8.47;7.77;;;15.40;68.70;;;;;;5127134;27;20449;-74
2021/05/19 05:25:08;;;;;;;8.07;7.27;;;15.80;67.70;;;;;;5133914;27;20447;-73
2021/05/19 05:27:43;;;;;;;9.27;7.77;;;15.20;65.80;;;;;;5134932;27;20605;-75
2021/05/19 05:30:18;;;;;;;8.70;8.00;;;13.70;66.70;;;;;;5131202;27;20432;-73
2021/05/19 05:32:54;;;;;;;9.27;8.37;;;12.30;69.70;;;;;;5129716;27;20471;-73
2021/05/19 05:35:29;;;;;;;9.33;8.40;;;10.80;72.70;;;;;;5132794;27;20460;-74
2021/05/19 05:38:04;;;;;;;10.30;9.40;;;10.60;74.70;;;;;;5133956;27;20542;-74
2021/05/19 05:40:39;;;;;;;10.80;9.60;;;11.40;74.70;;;;;;5139893;27;20452;-71
2021/05/19 05:43:14;;;;;;;10.43;9.47;;;11.50;75.50;;;;;;5128925;27;20532;-72
2021/05/19 05:45:48;;;;;;;10.67;9.57;;;11.20;74.90;;;;;;5129147;27;20440;-75
2021/05/19 05:48:24;;;;;;;10.27;9.27;;;11.10;75.40;;;;;;5130890;27;20907;-77
2021/05/19 05:50:59;;;;;;;11.10;10.00;;;10.30;77.00;;;;;;5147979;27;20483;-72
2021/05/19 05:53:34;;;;;;;12.20;11.10;;;9.90;79.10;;;;;;5138927;27;20506;-72
2021/05/19 05:56:09;;;;;;;13.50;11.90;;;9.80;80.40;;;;;;5131629;27;20433;-73
2021/05/19 05:58:41;;;;;;;13.80;11.17;;;11.90;78.20;;;;;;5129195;27;20451;-74
2021/05/19 06:01:16;;;;;;;17.60;11.60;;;12.60;76.30;;;;;;5129720;27;20461;-74
2021/05/19 06:03:51;;;;;;;12.37;11.10;;;13.30;73.40;;;;;;5132468;27;20448;-72
2021/05/19 06:06:26;;;;;;;13.67;11.30;;;14.10;72.40;;;;;;5131973;27;20544;-74
2021/05/19 06:09:02;;;;;;;12.50;11.37;;;14.40;71.10;;;;;;5137307;27;20540;-77
2021/05/19 06:11:37;;;;;;;12.40;11.30;;;14.20;70.20;;;;;;5144371;27;20495;-72
2021/05/19 06:14:12;;;;;;;11.57;10.23;;;13.10;71.40;;;;;;5129936;27;20628;-73
2021/05/19 06:16:47;;;;;;;13.53;10.13;;;12.00;71.80;;;;;;5134257;27;20781;-72
2021/05/19 06:19:23;;;;;;;11.00;10.03;;;11.70;72.70;;;;;;5130001;27;20478;-76
2021/05/19 06:21:58;;;;;;;11.13;10.13;;;11.40;73.20;;;;;;5132516;27;20452;-76
2021/05/19 06:24:33;;;;;;;13.10;11.10;;;11.20;74.30;;;;;;5130022;27;20440;-71
2021/05/19 06:27:08;;;;;;;10.83;9.90;;;11.10;74.60;;;;;;5136477;27;20431;-72
2021/05/19 06:29:43;;;;;;;12.27;11.17;;;11.40;74.10;;;;;;5131771;27;20959;-72
2021/05/19 06:32:18;;;;;;;12.53;10.03;;;11.50;73.70;;;;;;5136658;27;20436;-70
2021/05/19 06:34:54;;;;;;;12.63;11.33;;;11.50;72.90;;;;;;5134181;27;20463;-71
2021/05/19 06:37:29;;;;;;;11.43;10.37;;;11.50;73.30;;;;;;5137887;27;20542;-72
2021/05/19 06:40:04;;;;;;;14.70;9.60;;;11.90;73.00;;;;;;5134932;27;20460;-72
2021/05/19 06:42:39;;;;;;;10.33;9.50;;;12.10;72.00;;;;;;5138440;27;20483;-73
2021/05/19 06:45:15;;;;;;;11.83;10.83;;;12.00;71.90;;;;;;5135267;27;20947;-72
2021/05/19 06:47:49;;;;;;;10.50;9.50;;;11.70;72.50;;;;;;5135116;27;20444;-71
2021/05/19 06:50:25;;;;;;;10.27;9.30;;;12.10;72.10;;;;;;5129930;27;20563;-73
2021/05/19 06:53:00;;;;;;;10.80;9.90;;;12.20;72.10;;;;;;5134748;27;20449;-73
2021/05/19 06:55:35;;;;;;;10.67;9.57;;;12.60;70.90;;;;;;5136371;27;20463;-82
2021/05/19 06:58:10;;;;;;;10.87;9.90;;;12.70;71.00;;;;;;5132754;27;20452;-73
2021/05/19 07:00:45;;;;;;;10.10;9.23;;;12.50;70.90;;;;;;5139545;27;20951;-73
2021/05/19 07:03:20;;;;;;;10.10;9.20;;;12.80;69.80;;;;;;5137355;27;20539;-72
2021/05/19 07:05:56;;;;;;;11.23;10.23;;;12.60;70.50;;;;;;5130722;27;20504;-76
2021/05/19 07:08:31;;;;;;;10.73;9.80;;;12.20;70.20;;;;;;5131984;27;20540;-80
2021/05/19 07:11:06;;;;;;;10.37;9.57;;;12.10;70.00;;;;;;5132525;27;20460;-76
2021/05/19 07:13:41;;;;;;;11.52;10.45;;;12.30;71.10;;;;;;5136657;27;20436;-79
2021/05/19 07:16:19;;;;;;;10.90;9.80;;;13.30;69.20;;;;;;5136997;27;20232;-77
2021/05/19 07:18:56;;;;;;;9.37;8.57;;;12.90;69.50;;;;;;5132453;27;20438;-78
2021/05/19 07:21:32;;;;;;;10.20;9.30;;;13.30;69.40;;;;;;5130544;27;20464;-78
2021/05/19 07:24:07;;;;;;;10.23;9.33;;;12.90;68.20;;;;;;5137751;27;20522;-79
2021/05/19 07:26:42;;;;;;;10.90;9.90;;;12.70;69.10;;;;;;5131820;27;20441;-80
2021/05/19 07:29:18;;;;;;;9.93;8.93;;;12.50;68.50;;;;;;5140382;27;20191;-75
2021/05/19 07:31:53;;;;;;;10.67;9.57;;;13.00;69.00;;;;;;5128440;27;20455;-76
2021/05/19 07:34:30;;;;;;;11.13;10.23;;;13.20;68.40;;;;;;5134990;27;20532;-80
2021/05/19 07:44:35;;;;;;;9.93;9.13;;;12.40;67.90;;;;;;5142849;27;20438;-86
2021/05/19 07:47:09;;;;;;;9.60;8.70;;;12.80;68.70;;;;;;5135192;27;20521;-78
2021/05/19 07:49:45;;;;;;;10.50;9.37;;;13.10;68.10;;;;;;5136059;27;20459;-78
2021/05/19 07:52:21;;;;;;;9.50;8.70;;;13.00;67.00;;;;;;5136202;27;20525;-80
2021/05/19 07:54:53;;;;;;;10.70;9.80;;;12.90;66.90;;;;;;5141367;27;20528;-86
2021/05/19 07:57:39;;;;;;;10.07;8.80;;;12.90;67.60;;;;;;5146609;27;20441;-78
2021/05/19 08:03:28;;;;;;;9.90;9.00;;;13.80;66.00;;;;;;5133963;27;20476;-80
2021/05/19 08:06:02;;;;;;;9.70;8.77;;;14.20;65.40;;;;;;5137912;27;20256;-80
2021/05/19 08:08:36;;;;;;;10.23;9.43;;;13.60;64.60;;;;;;5136353;27;20453;-82
2021/05/19 08:11:10;;;;;;;11.00;10.00;;;13.40;66.30;;;;;;5148600;27;20446;-80
2021/05/19 08:13:47;;;;;;;10.27;9.30;;;13.80;66.40;;;;;;5141608;27;20472;-80
2021/05/19 08:16:22;;;;;;;10.70;9.80;;;13.80;65.80;;;;;;5139806;27;20509;-79
2021/05/19 08:18:57;;;;;;;10.20;9.30;;;14.10;65.40;;;;;;5148110;27;20438;-80
2021/05/19 08:21:33;;;;;;;10.50;9.60;;;14.00;65.80;;;;;;5146968;27;20443;-81
2021/05/19 08:24:16;;;;;;;10.40;9.50;;;13.70;65.70;;;;;;5129353;27;20533;-81
2021/05/19 08:26:51;;;;;;;9.70;8.73;;;14.20;64.50;;;;;;5152111;27;20448;-79
2021/05/19 08:29:26;;;;;;;11.33;10.33;;;14.50;63.40;;;;;;5153731;27;20457;-82
2021/05/19 08:32:07;;;;;;;11.43;10.43;;;14.60;63.90;;;;;;5151333;27;20449;-82
2021/05/19 08:34:44;;;;;;;9.90;9.03;;;13.90;61.30;;;;;;5144976;27;20466;-83
2021/05/19 08:37:25;;;;;;;10.47;9.43;;;13.80;62.30;;;;;;5154374;27;20729;-83
2021/05/19 08:40:06;;;;;;;10.10;9.07;;;13.90;62.60;;;;;;5143122;27;20942;-84
2021/05/19 08:42:45;;;;;;;10.73;9.63;;;14.30;62.60;;;;;;5135123;27;20453;-83
2021/05/19 08:45:26;;;;;;;10.27;9.17;;;14.60;61.90;;;;;;5147643;27;20457;-83
2021/05/19 08:48:07;;;;;;;10.90;9.90;;;14.20;61.40;;;;;;5148736;27;20469;-82
2021/05/19 08:50:43;;;;;;;10.13;8.50;;;14.00;60.70;;;;;;5125638;27;21111;-82
2021/05/19 08:53:24;;;;;;;10.40;9.30;;;13.90;60.90;;;;;;5130624;27;20660;-83
2021/05/19 08:56:00;;;;;;;9.33;8.53;;;14.60;60.20;;;;;;5157934;27;20452;-83
2021/05/19 08:58:35;;;;;;;10.20;9.20;;;14.80;60.90;;;;;;5146413;27;20456;-84
2021/05/19 09:01:11;;;;;;;10.20;9.30;;;14.10;58.90;;;;;;5145529;27;20452;-82
2021/05/19 09:03:46;;;;;;;12.27;8.70;;;14.10;59.80;;;;;;5152977;27;20448;-82
2021/05/19 09:06:26;;;;;;;10.20;9.30;;;14.10;58.80;;;;;;5131492;27;20502;-82
2021/05/19 09:09:03;;;;;;;8.83;8.00;;;14.00;59.10;;;;;;5151259;27;20436;-82
2021/05/19 09:12:04;;;;;;;10.00;9.00;;;14.20;58.30;;;;;;5149193;27;20912;-84
2021/05/19 09:14:46;;;;;;;9.10;8.23;;;14.20;58.70;;;;;;5154677;27;20459;-82
2021/05/19 09:17:34;;;;;;;8.80;8.10;;;14.40;58.90;;;;;;5128903;27;20445;-84
2021/05/19 09:20:11;;;;;;;8.10;7.40;;;15.50;57.00;;;;;;5154507;27;20446;-84
2021/05/19 09:23:05;;;;;;;7.43;6.73;;;15.20;56.70;;;;;;5152839;27;20461;-83
2021/05/19 09:25:41;;;;;;;7.93;7.23;;;15.60;57.00;;;;;;5120254;27;20455;-82
2021/05/19 09:28:28;;;;;;;8.50;7.70;;;15.90;56.40;;;;;;5150212;27;20780;-83
2021/05/19 09:31:04;;;;;;;8.30;7.53;;;15.60;56.30;;;;;;5144017;27;20451;-82
2021/05/19 09:33:36;;;;;;;7.40;6.70;;;15.50;55.90;;;;;;5131557;27;20479;-79
2021/05/19 09:36:22;;;;;;;7.60;6.27;;;15.20;55.10;;;;;;5141963;27;20447;-76
2021/05/19 09:38:55;;;;;;;8.00;7.30;;;;;;;;;;5135003;27;20444;-79
2021/05/19 09:41:32;;;;;;;7.60;6.90;;;15.70;55.40;;;;;;5144873;27;20441;-78
2021/05/19 09:44:10;;;;;;;7.37;6.33;;;15.80;55.40;;;;;;5136750;27;20443;-77
2021/05/19 09:46:52;;;;;;;6.97;6.27;;;15.20;55.00;;;;;;5130477;27;20513;-77
2021/05/19 09:49:28;;;;;;;6.70;6.10;;;15.40;55.60;;;;;;5139116;27;20823;-78
2021/05/19 09:52:14;;;;;;;5.10;4.70;;;15.50;54.30;;;;;;5131843;27;21015;-77
2021/05/19 09:54:49;;;;;;;8.07;5.20;;;15.60;54.50;;;;;;5135689;27;20458;-77
2021/05/19 09:57:27;;;;;;;10.53;4.60;;;15.20;53.60;;;;;;5137889;27;20445;-76
2021/05/19 10:00:03;;;;;;;5.30;4.80;;;15.20;52.70;;;;;;5133975;27;20450;-77
2021/05/19 10:02:40;;;;;;;5.50;5.10;;;15.40;52.20;;;;;;5138855;27;20533;-77
2021/05/19 10:05:17;;;;;;;6.77;6.07;;;15.60;52.30;;;;;;5150905;27;20574;-77
2021/05/19 10:07:54;;;;;;;6.00;5.57;;;16.40;52.30;;;;;;5142815;27;20452;-77
2021/05/19 10:10:30;;;;;;;5.77;5.27;;;16.20;51.90;;;;;;5141519;27;20444;-79
2021/05/19 10:13:05;;;;;;;8.10;6.23;;;16.10;52.40;;;;;;5137890;27;20858;-79
2021/05/19 10:15:41;;;;;;;6.47;5.93;;;15.20;53.40;;;;;;5135927;27;20885;-78
2021/05/19 10:18:19;;;;;;;4.67;4.37;;;;;;;;;;5136322;27;20494;-76
2021/05/19 10:21:01;;;;;;;5.43;4.93;;;15.10;50.40;;;;;;5135074;27;20524;-77
2021/05/19 10:23:38;;;;;;;5.33;4.93;;;15.40;51.00;;;;;;5137838;27;20455;-77
2021/05/19 10:26:15;;;;;;;5.30;4.80;;;15.60;50.10;;;;;;5138220;27;20496;-80
2021/05/19 10:28:53;;;;;;;5.83;5.33;;;15.60;49.50;;;;;;5139052;27;20478;-81
2021/05/19 10:31:41;;;;;;;9.70;5.40;;;15.30;49.30;;;;;;5136028;27;20490;-78
2021/05/19 10:34:16;;;;;;;13.13;5.10;;;15.80;49.90;;;;;;5137641;27;20753;-81
2021/05/19 10:36:59;;;;;;;7.40;6.43;;;16.40;49.90;;;;;;5153515;27;20823;-84
2021/05/19 10:39:34;;;;;;;13.43;5.30;;;15.40;49.60;;;;;;5146305;27;20632;-82
2021/05/19 10:42:19;;;;;;;10.60;5.40;;;15.80;48.60;;;;;;5132675;27;20458;-85
2021/05/19 10:45:13;;;;;;;6.23;5.73;;;;;;;;;;5138654;27;20476;-82
2021/05/19 10:47:56;;;;;;;6.23;5.73;;;;;;;;;;5151624;27;20446;-86
2021/05/19 10:50:38;;;;;;;6.33;5.83;;;17.30;48.30;;;;;;5146064;27;20469;-86
2021/05/19 10:59:54;;;;;;;8.30;7.60;;;16.10;49.80;;;;;;5141156;27;20829;-84
2021/05/19 11:02:54;;;;;;;7.83;6.17;;;16.20;50.50;;;;;;5138772;27;20732;-85
2021/05/19 11:05:33;;;;;;;7.00;6.30;;;16.10;49.90;;;;;;5138061;27;20461;-83
2021/05/19 11:08:30;;;;;;;5.80;5.30;;;16.30;50.60;;;;;;5126490;27;20574;-83
2021/05/19 11:11:22;;;;;;;3.83;3.57;;;15.50;50.60;;;;;;5143106;27;20454;-83
2021/05/19 11:14:06;;;;;;;5.27;3.20;;;;;;;;;;5146194;27;20476;-84
2021/05/19 11:16:56;;;;;;;4.00;3.07;;;15.60;50.80;;;;;;5148360;27;20514;-83
2021/05/19 11:19:36;;;;;;;3.40;3.10;;;15.50;50.20;;;;;;5143423;27;20478;-86
2021/05/19 11:22:35;;;;;;;3.80;3.37;;;15.30;51.30;;;;;;5145306;27;20452;-85
2021/05/19 11:25:14;;;;;;;3.83;3.43;;;14.80;52.10;;;;;;5142555;27;20461;-81
2021/05/19 11:27:49;;;;;;;3.03;2.73;;;14.60;52.90;;;;;;5139796;27;20555;-83
2021/05/19 11:30:30;;;;;;;3.27;3.07;;;;;;;;;;5146165;27;20470;-84
2021/05/19 11:33:16;;;;;;;4.47;3.60;;;14.30;52.30;;;;;;5141006;27;20457;-86
2021/05/19 11:39:00;;;;;;;3.27;2.97;;;14.00;54.00;;;;;;5125968;27;20450;-86
2021/05/19 11:41:40;;;;;;;3.10;2.90;;;14.00;53.80;;;;;;5142545;27;21054;-87
2021/05/19 11:44:32;;;;;;;3.17;2.87;;;14.20;53.70;;;;;;5136894;27;20449;-87
2021/05/19 11:47:09;;;;;;;3.30;1.90;;;14.40;54.10;;;;;;5141234;27;20466;-87
2021/05/19 11:50:03;;;;;;;3.87;2.20;;;14.20;52.50;;;;;;5149096;27;20473;-84
2021/05/19 11:52:49;;;;;;;2.83;2.10;;;14.20;53.00;;;;;;5150599;27;20472;-83
2021/05/19 11:58:45;;;;;;;6.30;1.87;;;14.20;53.00;;;;;;5144038;27;20463;-85
2021/05/19 12:01:20;;;;;;;1.03;0.93;;;14.40;53.30;;;;;;5133449;27;20450;-85
2021/05/19 12:03:55;;;;;;;1.67;1.00;;;14.30;52.10;;;;;;5140703;27;20453;-86
2021/05/19 12:06:27;;;;;;;0.80;0.80;;;13.90;51.90;;;;;;5144297;27;20488;-86
2021/05/19 12:09:08;;;;;;;2.10;0.80;;;14.10;52.40;;;;;;5135326;27;20485;-85
2021/05/19 12:11:49;;;;;;;0.77;0.73;;;13.90;52.30;;;;;;5143733;27;20445;-85
2021/05/19 12:14:24;;;;;;;2.13;0.80;;;14.20;52.70;;;;;;5140780;27;20528;-85
2021/05/19 12:17:03;;;;;;;0.63;0.60;;;14.20;52.70;;;;;;5147922;27;20445;-85
2021/05/19 12:19:45;;;;;;;0.80;0.80;;;14.00;52.30;;;;;;5142004;27;20496;-85
2021/05/19 12:22:23;;;;;;;1.10;1.00;;;14.10;52.70;;;;;;5147450;27;20500;-85
2021/05/19 12:25:04;;;;;;;4.10;1.10;;;13.90;53.30;;;;;;5138267;27;20489;-86
2021/05/19 12:27:50;;;;;;;1.20;1.10;;;14.00;54.00;;;;;;5156816;27;20432;-86
2021/05/19 12:30:26;;;;;;;2.20;1.70;;;13.90;53.70;;;;;;5131013;27;20448;-86
2021/05/19 12:33:12;;;;;;;1.70;1.60;;;14.00;52.90;;;;;;5134309;27;20444;-86
2021/05/19 12:35:48;;;;;;;1.87;1.63;;;14.90;52.80;;;;;;5144198;27;20481;-85
2021/05/19 12:38:25;;;;;;;1.87;1.77;;;15.00;52.50;;;;;;5140659;27;20448;-86
2021/05/19 12:41:05;;;;;;;2.70;2.13;;;15.30;51.90;;;;;;5137309;27;20474;-87
2021/05/19 12:43:45;;;;;;;2.60;2.40;;;16.00;51.80;;;;;;5135496;27;20483;-87
2021/05/19 12:46:22;;;;;;;3.50;3.30;;;17.10;51.30;;;;;;5139507;27;20828;-86
2021/05/19 12:51:58;;;;;;;3.40;2.83;;;15.60;50.00;;;;;;5128728;27;21017;-86
2021/05/19 12:54:37;;;;;;;3.03;2.80;;;15.50;50.30;;;;;;5132328;27;20493;-85
2021/05/19 12:57:31;;;;;;;3.67;3.23;;;15.10;50.60;;;;;;5142698;27;20521;-87
2021/05/19 13:00:20;;;;;;;10.20;4.27;;;15.30;51.60;;;;;;5149851;27;20485;-86
2021/05/19 13:03:00;;;;;;;3.87;3.40;;;15.80;52.00;;;;;;5135585;27;20526;-87
2021/05/19 13:05:43;;;;;;;4.80;4.40;;;16.60;51.60;;;;;;5127816;27;20446;-86
2021/05/19 13:08:29;;;;;;;5.30;4.80;;;16.90;50.20;;;;;;5137875;27;20455;-86
2021/05/19 13:11:30;;;;;;;3.70;3.40;;;16.30;50.70;;;;;;5141055;27;20457;-86
2021/05/19 13:14:07;;;;;;;3.80;3.50;;;16.30;51.10;;;;;;5121062;27;20827;-86
2021/05/19 13:16:49;;;;;;;5.17;4.23;;;16.10;50.30;;;;;;5136903;27;20477;-87
2021/05/19 13:19:40;;;;;;;6.87;5.00;;;16.30;50.20;;;;;;5122929;28;20448;-87
2021/05/19 13:22:27;;;;;;;3.93;3.53;;;15.60;50.20;;;;;;5140150;27;20465;-87
2021/05/19 13:25:07;;;;;;;3.47;3.17;;;15.80;49.00;;;;;;5157126;27;20490;-86
2021/05/19 13:30:52;;;;;;;2.53;2.23;;;15.90;49.70;;;;;;5142811;27;20478;-88
2021/05/19 13:42:37;;;;;;;5.47;2.47;;;15.40;48.50;;;;;;5151210;27;20455;-89
2021/05/19 13:48:04;;;;;;;4.17;3.30;;;;;;;;;;5158804;27;20972;-88
2021/05/19 13:50:53;;;;;;;4.67;4.27;;;15.90;50.70;;;;;;5138391;27;20468;-88
2021/05/19 13:53:34;;;;;;;5.43;4.90;;;15.80;50.90;;;;;;5145782;27;21052;-89
2021/05/19 14:02:01;;;;;;;5.80;5.20;;;15.50;52.90;;;;;;5123249;27;20436;-89
2021/05/19 14:04:49;;;;;;;4.33;4.03;;;15.10;53.10;;;;;;5131331;27;20537;-88
2021/05/19 14:13:14;;;;;;;2.57;2.37;;;15.20;52.30;;;;;;5140981;27;20447;-89
2021/05/19 14:16:02;;;;;;;1.77;1.67;;;15.40;52.30;;;;;;5141421;27;20474;-89
2021/05/19 14:27:16;;;;;;;4.73;4.07;;;15.60;53.10;;;;;;5142803;27;20450;-88
2021/05/19 14:30:06;;;;;;;3.33;3.13;;;15.10;53.20;;;;;;5152569;27;20897;-89
2021/05/19 14:32:51;;;;;;;4.83;3.20;;;14.90;53.50;;;;;;5140466;27;20456;-89
2021/05/19 15:22:13;;;;;;;2.30;2.10;;;16.00;49.30;;;;;;5118110;27;20460;-90
2021/05/19 15:28:15;;;;;;;2.33;1.90;;;16.10;49.50;;;;;;5144143;27;20443;-90
2021/05/19 15:34:01;;;;;;;2.20;2.10;;;16.10;48.80;;;;;;5145876;27;20494;-87
2021/05/19 15:36:37;;;;;;;2.30;1.90;;;16.10;49.10;;;;;;5132214;27;20479;-85
2021/05/19 15:39:17;;;;;;;1.87;1.77;;;16.10;48.60;;;;;;5140825;27;20440;-87